Time;durP1;ratioP1;P1;durP2;ratioP2;P2;SDS_P1;SDS_P2;PMS_P1;PMS_P2;Temp;Humidity;BMP_temperature;BMP_pressure;BME280_temperature;BME280_humidity;BME280_pressure;Samples;Min_cycle;Max_cycle;Signal;HPM_P1;HPM_P2
2022/03/16 00:01:30;;;;;;;4.88;2.60;;;2.80;99.90;;;;;;5030660;28;20064;-74
2022/03/16 00:03:55;;;;;;;4.88;3.20;;;2.70;99.90;;;;;;5028044;28;20402;-74
2022/03/16 00:06:21;;;;;;;5.07;2.88;;;2.70;99.90;;;;;;5028555;28;20060;-74
2022/03/16 00:08:46;;;;;;;7.18;2.75;;;2.70;99.90;;;;;;5027542;28;20029;-74
2022/03/16 00:11:13;;;;;;;7.03;2.97;;;2.70;99.90;;;;;;5023641;28;20517;-74
2022/03/16 00:13:39;;;;;;;5.50;3.15;;;2.60;99.90;;;;;;5028590;28;20035;-74
2022/03/16 00:16:04;;;;;;;5.15;2.42;;;2.60;99.90;;;;;;5028371;28;20033;-74
2022/03/16 00:18:30;;;;;;;5.82;2.47;;;2.60;99.90;;;;;;5027998;28;20021;-75
2022/03/16 00:20:56;;;;;;;4.60;2.50;;;2.50;99.90;;;;;;5007916;28;20037;-74
2022/03/16 00:23:21;;;;;;;5.97;2.95;;;2.50;99.90;;;;;;5031366;28;20033;-74
2022/03/16 00:25:47;;;;;;;6.05;2.88;;;2.50;99.90;;;;;;5027990;28;20059;-74
2022/03/16 00:28:13;;;;;;;4.80;2.65;;;2.40;99.90;;;;;;5032262;28;20032;-74
2022/03/16 00:30:39;;;;;;;4.60;3.17;;;2.40;99.90;;;;;;5027889;28;20033;-74
2022/03/16 00:33:04;;;;;;;4.70;3.03;;;2.40;99.90;;;;;;5029788;28;20033;-74
2022/03/16 00:35:30;;;;;;;7.78;2.55;;;2.30;99.90;;;;;;5031312;28;20635;-74
2022/03/16 00:37:56;;;;;;;3.83;2.45;;;2.40;99.90;;;;;;5023445;28;20076;-74
2022/03/16 00:40:21;;;;;;;5.32;2.83;;;2.40;99.90;;;;;;5032126;28;20033;-73
2022/03/16 00:42:47;;;;;;;5.97;2.83;;;2.30;99.90;;;;;;5024303;28;20529;-74
2022/03/16 00:45:13;;;;;;;6.28;3.55;;;2.20;99.90;;;;;;5029596;28;20026;-73
2022/03/16 00:47:39;;;;;;;4.45;1.95;;;2.20;99.90;;;;;;5030281;28;20060;-74
2022/03/16 00:50:05;;;;;;;4.93;2.13;;;2.20;99.90;;;;;;5027658;28;20030;-73
2022/03/16 00:52:31;;;;;;;7.00;3.40;;;2.20;99.90;;;;;;5017373;28;20437;-73
2022/03/16 00:54:57;;;;;;;6.53;3.70;;;2.20;99.90;;;;;;5027782;28;20497;-74
2022/03/16 00:57:23;;;;;;;4.93;3.05;;;2.10;99.90;;;;;;5019186;28;20026;-74
2022/03/16 00:59:49;;;;;;;6.38;2.95;;;2.10;99.90;;;;;;5031646;28;21823;-73
2022/03/16 01:02:15;;;;;;;4.15;2.63;;;2.10;99.90;;;;;;5031003;28;20048;-74
2022/03/16 01:04:41;;;;;;;3.55;2.05;;;2.10;99.90;;;;;;5033168;28;20033;-74
2022/03/16 01:07:07;;;;;;;5.20;2.58;;;2.00;99.90;;;;;;5032430;28;20033;-74
2022/03/16 01:09:34;;;;;;;5.32;2.92;;;2.00;99.90;;;;;;5032044;28;20872;-73
2022/03/16 01:12:01;;;;;;;5.60;2.60;;;2.10;99.90;;;;;;5034345;28;20037;-74
2022/03/16 01:14:27;;;;;;;4.95;3.13;;;2.00;99.90;;;;;;5031595;28;20041;-74
2022/03/16 01:16:52;;;;;;;4.65;2.60;;;1.80;99.90;;;;;;5027559;28;20033;-74
2022/03/16 01:19:18;;;;;;;5.03;2.47;;;2.00;99.90;;;;;;5032204;28;20021;-74
2022/03/16 01:21:44;;;;;;;6.40;3.05;;;1.90;99.90;;;;;;5032102;28;20029;-73
2022/03/16 01:24:10;;;;;;;7.47;3.40;;;1.80;99.90;;;;;;5013821;28;20041;-73
2022/03/16 01:26:36;;;;;;;5.63;3.22;;;1.70;99.90;;;;;;5029384;28;20025;-74
2022/03/16 01:29:03;;;;;;;6.50;3.15;;;1.80;99.90;;;;;;5015322;28;20101;-74
2022/03/16 01:31:28;;;;;;;5.80;3.00;;;1.90;99.90;;;;;;5033368;28;20500;-74
2022/03/16 01:33:55;;;;;;;3.80;2.40;;;1.90;99.90;;;;;;5030709;28;20029;-73
2022/03/16 01:36:21;;;;;;;4.88;2.47;;;1.90;99.90;;;;;;5014559;28;20671;-73
2022/03/16 01:38:47;;;;;;;4.97;2.95;;;1.90;99.90;;;;;;5032485;28;20502;-74
2022/03/16 01:41:13;;;;;;;5.05;2.85;;;1.90;99.90;;;;;;5026687;28;20115;-73
2022/03/16 01:43:39;;;;;;;6.45;3.47;;;1.80;99.90;;;;;;5030748;28;20112;-73
2022/03/16 01:46:06;;;;;;;4.20;2.35;;;1.80;99.90;;;;;;5031090;28;20386;-73
2022/03/16 01:48:31;;;;;;;6.43;3.10;;;1.80;99.90;;;;;;5031600;28;20048;-75
2022/03/16 01:50:57;;;;;;;7.25;3.90;;;1.70;99.90;;;;;;5032175;28;20037;-73
2022/03/16 01:53:24;;;;;;;8.32;4.18;;;1.70;99.90;;;;;;5030973;28;20040;-74
2022/03/16 01:55:50;;;;;;;6.18;3.13;;;1.70;99.90;;;;;;5028250;28;20033;-74
2022/03/16 01:58:19;;;;;;;6.82;3.97;;;1.70;99.90;;;;;;5029710;28;20901;-74
2022/03/16 02:00:45;;;;;;;6.07;3.35;;;1.60;99.90;;;;;;5032924;28;20392;-74
2022/03/16 02:03:11;;;;;;;7.13;4.38;;;1.60;99.90;;;;;;5031036;28;20013;-74
2022/03/16 02:05:39;;;;;;;8.40;4.53;;;1.50;99.90;;;;;;5030916;28;20429;-74
2022/03/16 02:08:08;;;;;;;7.53;3.95;;;1.60;99.90;;;;;;5006523;28;20080;-73
2022/03/16 02:10:34;;;;;;;5.45;3.25;;;1.70;99.90;;;;;;5029538;28;20472;-73
2022/03/16 02:13:00;;;;;;;6.72;4.45;;;1.70;99.90;;;;;;5030483;28;20021;-74
2022/03/16 02:15:26;;;;;;;6.82;4.15;;;1.60;99.90;;;;;;5031538;28;20478;-73
2022/03/16 02:17:55;;;;;;;6.43;3.92;;;1.60;99.90;;;;;;5029750;28;20034;-74
2022/03/16 02:20:22;;;;;;;9.15;4.57;;;1.50;99.90;;;;;;5030160;28;20034;-73
2022/03/16 02:22:54;;;;;;;8.75;4.80;;;1.40;99.90;;;;;;5033536;28;20061;-73
2022/03/16 02:25:20;;;;;;;7.88;4.28;;;1.40;99.90;;;;;;5007906;28;20025;-74
2022/03/16 02:27:46;;;;;;;7.63;4.22;;;1.40;99.90;;;;;;5004388;28;20060;-73
2022/03/16 02:30:12;;;;;;;7.82;4.47;;;1.40;99.90;;;;;;5034697;28;20045;-73
2022/03/16 02:32:37;;;;;;;7.47;4.60;;;1.50;99.90;;;;;;5025778;28;20091;-74
2022/03/16 02:35:03;;;;;;;5.45;3.35;;;1.40;99.90;;;;;;5030243;28;20037;-73
2022/03/16 02:37:29;;;;;;;5.38;3.55;;;1.30;99.90;;;;;;5029083;28;20026;-74
2022/03/16 02:39:55;;;;;;;7.18;4.15;;;1.40;99.90;;;;;;5013236;28;20044;-73
2022/03/16 02:42:24;;;;;;;7.47;4.13;;;1.30;99.90;;;;;;5033246;28;20045;-73
2022/03/16 02:44:50;;;;;;;7.27;3.93;;;1.20;99.90;;;;;;5029365;28;20064;-73
2022/03/16 02:47:15;;;;;;;5.68;3.40;;;1.40;99.90;;;;;;5011817;28;20324;-74
2022/03/16 02:49:41;;;;;;;6.45;3.60;;;1.50;99.90;;;;;;5030135;28;20021;-74
2022/03/16 02:52:08;;;;;;;9.00;4.15;;;1.60;99.90;;;;;;5034622;28;20433;-74
2022/03/16 02:54:34;;;;;;;6.63;3.75;;;1.50;99.90;;;;;;5032836;28;20037;-74
2022/03/16 02:57:00;;;;;;;8.68;4.60;;;1.70;99.90;;;;;;5027220;28;20053;-73
2022/03/16 02:59:26;;;;;;;6.65;4.25;;;1.90;99.90;;;;;;5033357;28;20469;-74
2022/03/16 03:01:52;;;;;;;8.52;4.68;;;1.90;99.90;;;;;;5013088;28;20303;-73
2022/03/16 03:04:17;;;;;;;7.88;4.40;;;2.00;99.90;;;;;;5028858;28;20268;-73
2022/03/16 03:06:43;;;;;;;5.97;3.90;;;1.90;99.90;;;;;;5033823;28;20034;-74
2022/03/16 03:09:08;;;;;;;8.88;5.03;;;2.10;99.90;;;;;;5034350;28;20072;-74
2022/03/16 03:11:34;;;;;;;8.18;3.85;;;2.10;99.90;;;;;;5029464;28;20017;-74
2022/03/16 03:14:00;;;;;;;8.65;5.03;;;2.00;99.90;;;;;;5032585;28;20029;-73
2022/03/16 03:16:25;;;;;;;8.23;4.63;;;2.10;99.90;;;;;;5027553;28;20042;-73
2022/03/16 03:18:51;;;;;;;8.18;4.35;;;2.10;99.90;;;;;;5029233;28;20056;-74
2022/03/16 03:21:17;;;;;;;6.07;4.13;;;2.10;99.90;;;;;;5027809;28;20029;-74
2022/03/16 03:23:42;;;;;;;7.97;4.82;;;2.10;99.90;;;;;;5033142;28;20029;-74
2022/03/16 03:26:08;;;;;;;8.27;5.07;;;2.20;99.90;;;;;;5030057;28;20037;-73
2022/03/16 03:28:33;;;;;;;8.27;5.05;;;2.40;99.90;;;;;;5012683;28;20035;-73
2022/03/16 03:30:59;;;;;;;8.60;5.10;;;2.30;99.90;;;;;;5044705;28;20026;-73
2022/03/16 03:33:24;;;;;;;8.48;4.60;;;2.30;99.90;;;;;;5029036;28;20029;-74
2022/03/16 03:35:50;;;;;;;8.73;5.07;;;2.20;99.90;;;;;;5029067;28;20038;-73
2022/03/16 03:38:16;;;;;;;7.10;5.00;;;2.20;99.90;;;;;;5032440;28;20052;-73
2022/03/16 03:40:42;;;;;;;6.97;4.85;;;2.30;99.90;;;;;;5032922;28;20033;-74
2022/03/16 03:43:08;;;;;;;7.95;5.45;;;2.30;99.90;;;;;;5031916;28;20088;-74
2022/03/16 03:45:34;;;;;;;8.90;5.75;;;2.30;99.90;;;;;;5030792;28;20045;-73
2022/03/16 03:47:59;;;;;;;8.77;5.78;;;2.30;99.90;;;;;;5026705;28;20038;-74
2022/03/16 03:50:25;;;;;;;9.40;5.40;;;2.30;99.90;;;;;;5028613;28;20120;-73
2022/03/16 03:52:50;;;;;;;7.88;5.07;;;2.30;99.90;;;;;;5028814;28;20423;-74
2022/03/16 03:55:16;;;;;;;6.82;4.20;;;2.20;99.90;;;;;;5032810;28;20413;-74
2022/03/16 03:57:41;;;;;;;8.88;5.18;;;2.10;99.90;;;;;;5032298;28;20033;-74
2022/03/16 04:00:09;;;;;;;7.80;5.00;;;2.00;99.90;;;;;;5028404;28;20025;-74
2022/03/16 04:02:48;;;;;;;7.53;4.70;;;2.00;99.90;;;;;;5030092;28;20029;-74
2022/03/16 04:05:13;;;;;;;9.13;5.53;;;2.00;99.90;;;;;;5032057;28;20486;-74
2022/03/16 04:07:39;;;;;;;6.28;3.92;;;2.00;99.90;;;;;;5031457;28;20036;-74
2022/03/16 04:10:05;;;;;;;9.48;5.35;;;2.00;99.90;;;;;;5028871;28;20018;-74
2022/03/16 04:12:31;;;;;;;6.68;4.43;;;2.00;99.90;;;;;;5011624;28;20068;-74
2022/03/16 04:14:56;;;;;;;5.78;3.63;;;1.90;99.90;;;;;;5027001;28;20108;-73
2022/03/16 04:17:22;;;;;;;7.65;4.22;;;2.00;99.90;;;;;;5032798;28;20025;-74
2022/03/16 04:19:48;;;;;;;6.38;4.22;;;2.10;99.90;;;;;;5031029;28;20033;-74
2022/03/16 04:22:13;;;;;;;7.90;4.75;;;2.30;99.90;;;;;;5029558;28;20033;-74
2022/03/16 04:24:39;;;;;;;6.88;4.03;;;2.30;99.90;;;;;;5026126;28;20033;-74
2022/03/16 04:27:05;;;;;;;6.03;4.10;;;2.30;99.90;;;;;;5029463;28;20117;-74
2022/03/16 04:29:30;;;;;;;6.45;3.78;;;2.30;99.90;;;;;;5010768;28;20047;-73
2022/03/16 04:31:58;;;;;;;7.00;4.40;;;2.30;99.90;;;;;;5032211;28;20037;-74
2022/03/16 04:34:23;;;;;;;6.93;4.43;;;2.40;99.90;;;;;;5024280;28;20389;-74
2022/03/16 04:36:49;;;;;;;7.70;4.25;;;2.40;99.90;;;;;;5032254;28;20037;-74
2022/03/16 04:39:15;;;;;;;7.68;4.03;;;2.40;99.90;;;;;;5023830;28;20071;-74
2022/03/16 04:41:40;;;;;;;5.15;2.95;;;2.40;99.90;;;;;;5029042;28;20037;-74
2022/03/16 04:44:06;;;;;;;7.32;3.97;;;2.40;99.90;;;;;;5011153;28;20109;-74
2022/03/16 04:46:32;;;;;;;7.97;4.35;;;2.30;99.90;;;;;;5028434;28;20128;-74
2022/03/16 04:48:59;;;;;;;7.32;4.60;;;2.30;99.90;;;;;;5011818;28;20045;-74
2022/03/16 04:51:24;;;;;;;7.50;4.63;;;2.10;99.90;;;;;;5010885;28;20022;-74
2022/03/16 04:53:50;;;;;;;8.13;4.57;;;2.10;99.90;;;;;;5028063;28;20044;-74
2022/03/16 04:56:15;;;;;;;7.82;4.63;;;2.00;99.90;;;;;;5024831;28;20064;-75
2022/03/16 04:58:41;;;;;;;6.57;4.15;;;2.00;99.90;;;;;;5010681;28;20468;-74
2022/03/16 05:01:06;;;;;;;7.55;4.63;;;2.00;99.90;;;;;;5028123;28;20076;-74
2022/03/16 05:03:32;;;;;;;7.55;4.07;;;2.10;99.90;;;;;;5023886;28;20124;-73
2022/03/16 05:05:58;;;;;;;7.38;3.72;;;2.30;99.90;;;;;;5033665;28;20033;-73
2022/03/16 05:08:24;;;;;;;7.78;4.13;;;2.30;99.90;;;;;;5031015;28;20139;-74
2022/03/16 05:10:49;;;;;;;6.55;4.38;;;2.30;99.90;;;;;;5027334;28;20064;-74
2022/03/16 05:13:15;;;;;;;6.60;4.20;;;2.30;99.90;;;;;;5028113;28;20033;-74
2022/03/16 05:15:40;;;;;;;6.35;4.18;;;2.20;99.90;;;;;;5027238;28;20397;-74
2022/03/16 05:18:06;;;;;;;6.60;4.47;;;2.10;99.90;;;;;;5024090;28;20030;-74
2022/03/16 05:20:32;;;;;;;8.70;4.70;;;2.20;99.90;;;;;;5028801;28;20034;-74
2022/03/16 05:22:57;;;;;;;6.75;4.68;;;2.30;99.90;;;;;;5030983;28;20022;-74
2022/03/16 05:25:25;;;;;;;8.02;4.47;;;2.30;99.90;;;;;;5030653;28;20029;-74
2022/03/16 05:27:53;;;;;;;7.22;4.63;;;2.30;99.90;;;;;;5028537;28;20025;-74
2022/03/16 05:30:23;;;;;;;9.20;5.97;;;2.40;99.90;;;;;;5028310;28;20035;-74
2022/03/16 05:32:56;;;;;;;8.05;5.30;;;2.50;99.90;;;;;;5023578;28;20034;-74
2022/03/16 05:35:22;;;;;;;11.52;7.57;;;2.50;99.90;;;;;;5023385;28;20048;-74
2022/03/16 05:37:48;;;;;;;13.57;7.82;;;2.70;99.90;;;;;;5030737;28;20021;-74
2022/03/16 05:40:13;;;;;;;12.48;8.18;;;2.70;99.90;;;;;;5030708;28;20040;-74
2022/03/16 05:42:39;;;;;;;13.38;7.85;;;2.70;99.90;;;;;;5028866;28;20104;-75
2022/03/16 05:45:06;;;;;;;14.50;9.52;;;2.80;99.90;;;;;;5020792;28;20116;-74
2022/03/16 05:47:32;;;;;;;15.40;10.35;;;3.10;99.90;;;;;;5025405;28;20057;-74
2022/03/16 05:49:58;;;;;;;15.88;10.63;;;3.10;99.90;;;;;;5032540;28;20033;-74
2022/03/16 05:52:25;;;;;;;13.68;8.90;;;3.10;99.90;;;;;;5030984;28;20044;-74
2022/03/16 05:54:52;;;;;;;18.70;11.15;;;3.20;99.90;;;;;;5031806;28;20065;-74
2022/03/16 05:57:19;;;;;;;20.02;12.65;;;3.30;99.90;;;;;;5011629;28;20025;-74
2022/03/16 05:59:45;;;;;;;19.55;11.50;;;3.40;99.90;;;;;;5031712;28;20025;-74
2022/03/16 06:02:12;;;;;;;16.80;10.93;;;3.40;99.90;;;;;;5029797;28;20037;-74
2022/03/16 06:04:38;;;;;;;14.27;9.77;;;3.40;99.90;;;;;;5029353;28;20029;-74
2022/03/16 06:07:05;;;;;;;18.63;12.05;;;3.40;99.90;;;;;;5007120;28;20057;-74
2022/03/16 06:09:31;;;;;;;19.77;11.70;;;3.40;99.90;;;;;;5030039;28;20025;-75
2022/03/16 06:11:58;;;;;;;19.63;14.43;;;3.50;99.90;;;;;;5033654;28;20482;-74
2022/03/16 06:14:23;;;;;;;18.17;11.93;;;3.50;99.90;;;;;;5041724;28;20033;-74
2022/03/16 06:16:50;;;;;;;19.02;12.48;;;3.50;99.90;;;;;;5026546;28;20129;-74
2022/03/16 06:19:15;;;;;;;21.23;11.80;;;3.60;99.90;;;;;;5013369;28;20112;-74
2022/03/16 06:21:41;;;;;;;17.02;11.95;;;3.60;99.90;;;;;;5032873;28;20108;-74
2022/03/16 06:24:07;;;;;;;19.42;12.48;;;3.50;99.90;;;;;;5030903;28;20549;-74
2022/03/16 06:26:32;;;;;;;18.50;10.93;;;3.60;99.90;;;;;;5030825;28;20496;-74
2022/03/16 06:28:58;;;;;;;16.63;10.40;;;3.60;99.90;;;;;;5029904;28;20035;-74
2022/03/16 06:31:24;;;;;;;15.48;10.77;;;3.60;99.90;;;;;;5011823;28;20039;-74
2022/03/16 06:33:49;;;;;;;17.40;10.55;;;3.70;99.90;;;;;;5030910;28;20037;-74
2022/03/16 06:36:15;;;;;;;14.05;9.95;;;3.70;99.90;;;;;;5032689;28;20047;-74
2022/03/16 06:38:40;;;;;;;15.60;9.88;;;3.70;99.90;;;;;;5012055;28;20091;-77
2022/03/16 06:41:06;;;;;;;15.18;10.02;;;3.80;99.90;;;;;;5012355;28;20037;-74
2022/03/16 06:43:32;;;;;;;15.20;9.30;;;3.80;99.90;;;;;;5031031;28;20473;-75
2022/03/16 06:45:57;;;;;;;11.57;8.18;;;3.80;99.90;;;;;;5028815;28;20041;-74
2022/03/16 06:48:24;;;;;;;14.48;9.30;;;3.80;99.90;;;;;;5029270;28;20029;-74
2022/03/16 06:50:50;;;;;;;13.25;9.25;;;4.00;99.90;;;;;;5026561;28;20060;-74
2022/03/16 06:53:16;;;;;;;13.93;9.82;;;3.90;99.90;;;;;;5010641;28;20026;-75
2022/03/16 06:55:42;;;;;;;13.32;10.13;;;4.00;99.90;;;;;;5012544;28;20203;-75
2022/03/16 06:58:07;;;;;;;15.18;10.48;;;4.10;99.90;;;;;;5028717;28;20537;-74
2022/03/16 07:00:33;;;;;;;15.30;10.65;;;4.20;99.90;;;;;;5030545;28;20040;-74
2022/03/16 07:03:00;;;;;;;11.75;7.63;;;4.30;99.90;;;;;;5030122;28;20385;-74
2022/03/16 07:05:33;;;;;;;13.85;9.38;;;4.30;99.90;;;;;;5028690;28;20566;-75
2022/03/16 07:08:02;;;;;;;11.18;7.97;;;4.40;99.90;;;;;;5024691;28;20037;-75
2022/03/16 07:10:29;;;;;;;12.73;8.75;;;4.60;99.90;;;;;;5027963;28;20112;-75
2022/03/16 07:12:55;;;;;;;12.80;7.90;;;4.60;99.90;;;;;;5028918;28;20074;-75
2022/03/16 07:15:21;;;;;;;13.27;8.95;;;4.60;99.90;;;;;;5029970;28;20045;-75
2022/03/16 07:17:47;;;;;;;12.57;8.60;;;4.70;99.90;;;;;;5032830;28;20029;-75
2022/03/16 07:20:12;;;;;;;16.85;11.70;;;4.80;99.90;;;;;;5024411;28;20036;-75
2022/03/16 07:22:39;;;;;;;15.40;10.73;;;4.80;99.90;;;;;;4996875;28;20047;-75
2022/03/16 07:25:09;;;;;;;14.93;9.27;;;4.90;99.90;;;;;;5023985;28;20071;-75
2022/03/16 07:27:38;;;;;;;;;;;5.00;99.90;;;;;;5040381;28;20449;-76
2022/03/16 07:30:06;;;;;;;14.20;9.43;;;5.10;99.90;;;;;;5023456;28;19909;-75
2022/03/16 07:32:35;;;;;;;11.30;6.78;;;5.10;99.90;;;;;;5010693;28;20087;-75
2022/03/16 07:35:00;;;;;;;11.10;7.47;;;5.20;99.90;;;;;;5025934;28;20108;-75
2022/03/16 07:37:26;;;;;;;13.70;9.05;;;5.30;99.90;;;;;;5005025;28;20267;-75
2022/03/16 07:39:52;;;;;;;15.77;7.97;;;5.40;99.90;;;;;;5031813;28;20033;-75
2022/03/16 07:42:17;;;;;;;14.52;8.77;;;5.50;99.90;;;;;;5019463;28;20419;-75
2022/03/16 07:44:43;;;;;;;15.65;10.43;;;5.60;99.90;;;;;;5012497;28;20107;-76
2022/03/16 07:47:08;;;;;;;12.43;8.70;;;5.80;99.90;;;;;;5029169;28;20041;-75
2022/03/16 07:49:35;;;;;;;15.95;10.30;;;5.90;99.90;;;;;;5027263;28;20524;-75
2022/03/16 07:52:00;;;;;;;12.82;8.55;;;6.10;99.90;;;;;;5027403;28;20053;-75
2022/03/16 07:54:26;;;;;;;13.00;9.02;;;6.20;99.90;;;;;;5013126;28;20065;-75
2022/03/16 07:56:53;;;;;;;14.68;8.93;;;6.30;99.90;;;;;;5010958;28;20048;-75
2022/03/16 07:59:19;;;;;;;12.30;7.50;;;6.50;99.90;;;;;;5029526;28;20021;-76
2022/03/16 08:01:44;;;;;;;11.85;7.97;;;6.70;99.90;;;;;;5028379;28;20505;-76
2022/03/16 08:04:10;;;;;;;10.82;7.63;;;6.70;99.90;;;;;;5028230;28;20080;-76
2022/03/16 08:06:36;;;;;;;12.05;8.07;;;6.90;99.90;;;;;;5010780;28;20056;-76
2022/03/16 08:09:01;;;;;;;12.75;8.45;;;7.00;99.90;;;;;;5027662;28;20116;-76
2022/03/16 08:11:27;;;;;;;12.40;7.30;;;7.20;99.90;;;;;;5011371;28;20077;-76
2022/03/16 08:13:52;;;;;;;12.50;8.77;;;7.30;99.90;;;;;;5029334;28;20131;-76
2022/03/16 08:16:18;;;;;;;11.48;8.35;;;7.40;99.90;;;;;;5024416;28;20087;-76
2022/03/16 08:18:43;;;;;;;12.27;9.05;;;7.60;99.90;;;;;;5029310;28;20022;-76
2022/03/16 08:21:11;;;;;;;12.57;8.73;;;7.70;99.90;;;;;;5027110;28;20042;-76
2022/03/16 08:23:38;;;;;;;13.07;8.10;;;7.90;99.90;;;;;;5032514;28;20112;-76
2022/03/16 08:26:04;;;;;;;10.45;7.85;;;8.00;99.90;;;;;;5029448;28;20033;-76
2022/03/16 08:28:29;;;;;;;9.25;6.57;;;8.20;99.90;;;;;;5031113;28;20021;-76
2022/03/16 08:30:55;;;;;;;11.10;8.52;;;8.30;99.90;;;;;;5028394;28;20021;-76
2022/03/16 08:33:23;;;;;;;11.50;8.40;;;8.40;99.90;;;;;;5027491;28;20021;-76
2022/03/16 08:35:49;;;;;;;11.85;8.40;;;8.60;99.90;;;;;;5026876;28;20045;-76
2022/03/16 08:38:15;;;;;;;11.00;7.05;;;8.70;99.90;;;;;;5028817;28;20025;-76
2022/03/16 08:40:41;;;;;;;12.88;8.23;;;8.80;99.90;;;;;;5032121;28;20106;-76
2022/03/16 08:43:08;;;;;;;12.18;8.20;;;8.90;99.90;;;;;;5027497;28;20124;-76
2022/03/16 08:45:33;;;;;;;10.07;6.93;;;9.10;99.90;;;;;;5027341;28;20386;-76
2022/03/16 08:47:59;;;;;;;11.40;7.75;;;9.30;99.90;;;;;;5031081;28;20034;-76
2022/03/16 08:50:25;;;;;;;9.70;6.70;;;9.30;99.90;;;;;;5032079;28;20037;-77
2022/03/16 08:52:51;;;;;;;8.82;6.47;;;9.40;99.90;;;;;;5027848;28;20025;-76
2022/03/16 08:55:17;;;;;;;9.82;6.47;;;9.20;99.90;;;;;;5028391;28;20547;-77
2022/03/16 08:57:45;;;;;;;8.68;5.90;;;9.30;99.90;;;;;;5032161;28;20033;-76
2022/03/16 09:00:15;;;;;;;8.63;6.22;;;9.30;99.90;;;;;;5028535;28;20037;-76
2022/03/16 09:02:45;;;;;;;8.15;5.57;;;9.40;99.90;;;;;;5039479;28;20037;-77
2022/03/16 09:05:12;;;;;;;6.75;4.97;;;9.40;99.90;;;;;;5026888;28;20041;-76
2022/03/16 09:07:38;;;;;;;7.95;5.88;;;9.50;99.90;;;;;;5028522;28;20033;-76
2022/03/16 09:10:06;;;;;;;7.90;4.65;;;9.60;99.90;;;;;;5027654;28;20030;-76
2022/03/16 09:12:32;;;;;;;8.13;4.93;;;9.70;99.90;;;;;;5025274;28;20382;-77
2022/03/16 09:14:57;;;;;;;7.13;4.88;;;9.70;99.90;;;;;;5028408;28;20048;-77
2022/03/16 09:17:23;;;;;;;8.70;5.25;;;9.80;99.90;;;;;;5023067;28;20032;-76
2022/03/16 09:19:50;;;;;;;7.18;4.88;;;9.80;99.90;;;;;;5032545;28;20022;-76
2022/03/16 09:22:16;;;;;;;5.95;3.95;;;10.00;99.90;;;;;;4997224;28;20033;-76
2022/03/16 09:24:42;;;;;;;6.55;4.47;;;10.10;99.90;;;;;;5030048;28;20653;-76
2022/03/16 09:27:08;;;;;;;8.60;5.03;;;10.30;99.90;;;;;;5029959;28;20080;-77
2022/03/16 09:29:34;;;;;;;10.80;5.72;;;10.30;99.90;;;;;;5030934;28;20022;-77
2022/03/16 09:31:59;;;;;;;6.85;5.47;;;10.40;99.90;;;;;;5032257;28;20025;-76
2022/03/16 09:34:25;;;;;;;9.35;6.25;;;10.50;99.90;;;;;;5030484;28;20035;-76
2022/03/16 09:36:50;;;;;;;10.48;5.40;;;10.50;99.90;;;;;;5031130;28;20033;-77
2022/03/16 09:39:16;;;;;;;8.82;6.03;;;10.60;99.90;;;;;;5030722;28;20026;-77
2022/03/16 09:41:42;;;;;;;9.50;6.10;;;10.60;99.90;;;;;;5027175;28;20076;-76
2022/03/16 09:44:10;;;;;;;7.45;5.18;;;10.60;99.90;;;;;;5031888;28;20075;-76
2022/03/16 09:46:37;;;;;;;8.07;4.90;;;10.70;99.90;;;;;;5032511;28;20045;-76
2022/03/16 09:49:04;;;;;;;6.85;5.00;;;11.00;99.90;;;;;;5031019;28;20029;-76
2022/03/16 09:51:35;;;;;;;6.38;4.93;;;11.00;99.90;;;;;;5016408;28;20029;-77
2022/03/16 09:54:01;;;;;;;;;;;11.20;99.90;;;;;;5048268;28;20084;-77
2022/03/16 09:56:27;;;;;;;8.95;5.32;;;11.30;99.90;;;;;;5027382;28;19925;-77
2022/03/16 09:58:52;;;;;;;6.95;5.10;;;11.50;99.90;;;;;;5028201;28;20478;-77
2022/03/16 10:01:18;;;;;;;7.10;5.28;;;11.80;99.90;;;;;;5031239;28;20032;-77
2022/03/16 10:03:48;;;;;;;9.45;7.03;;;11.70;99.90;;;;;;5030308;28;20588;-77
2022/03/16 10:06:16;;;;;;;6.95;5.22;;;11.60;99.90;;;;;;5031654;28;20381;-77
2022/03/16 10:13:13;;;;;;;6.07;4.47;;;11.70;99.90;;;;;;5030423;28;20556;-77
2022/03/16 10:14:17;;;;;;;6.13;4.28;;;11.90;99.90;;;;;;5029840;28;20516;-77
2022/03/16 10:19:50;;;;;;;7.05;5.03;;;12.40;99.90;;;;;;5030376;28;20041;-77
2022/03/16 10:22:28;;;;;;;8.38;6.35;;;12.60;99.90;;;;;;5029283;28;20363;-77
2022/03/16 10:25:05;;;;;;;9.65;6.05;;;12.70;99.90;;;;;;5029534;28;20033;-77
2022/03/16 10:27:37;;;;;;;6.45;5.03;;;12.40;99.90;;;;;;5034548;28;20033;-77
2022/03/16 10:30:05;;;;;;;9.48;5.90;;;12.70;99.90;;;;;;5030772;28;20469;-77
2022/03/16 10:32:31;;;;;;;7.63;6.05;;;12.60;99.90;;;;;;5028947;28;20037;-77
2022/03/16 10:35:02;;;;;;;7.53;5.18;;;12.70;99.90;;;;;;5013603;28;20025;-77
2022/03/16 10:37:28;;;;;;;7.18;4.93;;;13.10;99.90;;;;;;5031595;28;20071;-77
2022/03/16 10:39:53;;;;;;;7.00;5.32;;;13.00;99.90;;;;;;5030657;28;20407;-77
2022/03/16 10:48:20;;;;;;;7.88;4.68;;;13.30;99.90;;;;;;5029223;28;20508;-77
2022/03/16 10:50:48;;;;;;;5.07;4.13;;;13.50;99.90;;;;;;5026764;28;20040;-77
2022/03/16 10:53:16;;;;;;;7.75;5.75;;;13.60;99.90;;;;;;5030010;28;20029;-78
2022/03/16 10:55:44;;;;;;;5.63;4.10;;;13.60;99.90;;;;;;5029628;28;20089;-77
2022/03/16 10:58:12;;;;;;;5.78;4.47;;;13.90;99.90;;;;;;5031036;28;20028;-77
2022/03/16 11:00:41;;;;;;;6.95;5.13;;;14.10;99.90;;;;;;5023795;28;20033;-78
2022/03/16 11:03:09;;;;;;;4.65;3.75;;;14.10;99.90;;;;;;5007014;28;20411;-77
2022/03/16 11:05:39;;;;;;;10.07;5.85;;;14.20;99.90;;;;;;5029180;28;20033;-77
2022/03/16 11:08:07;;;;;;;5.75;4.47;;;13.90;99.90;;;;;;5030859;28;20386;-77
2022/03/16 11:10:37;;;;;;;7.82;5.00;;;14.20;99.90;;;;;;5006674;28;20129;-77
2022/03/16 11:15:50;;;;;;;8.32;5.40;;;14.30;99.90;;;;;;5041687;28;20335;-77
2022/03/16 11:18:17;;;;;;;5.20;3.50;;;14.50;99.90;;;;;;5022929;28;20443;-77
2022/03/16 11:20:47;;;;;;;6.45;4.38;;;14.60;99.90;;;;;;5030161;28;20029;-77
2022/03/16 11:26:25;;;;;;;5.35;3.60;;;14.90;99.90;;;;;;5027329;28;20509;-77
2022/03/16 11:29:07;;;;;;;5.38;4.25;;;14.80;99.90;;;;;;5006667;28;20049;-77
2022/03/16 11:31:34;;;;;;;6.00;4.55;;;14.70;99.90;;;;;;5028204;28;20029;-77
2022/03/16 11:34:10;;;;;;;5.50;3.72;;;14.60;99.90;;;;;;5029798;28;20025;-78
2022/03/16 11:36:40;;;;;;;5.85;4.00;;;14.70;99.90;;;;;;5043045;28;20379;-77
2022/03/16 11:39:22;;;;;;;4.85;3.25;;;14.70;99.90;;;;;;5028308;28;20329;-77
2022/03/16 11:41:50;;;;;;;3.80;2.58;;;14.90;99.90;;;;;;5028428;28;20440;-78
2022/03/16 11:44:25;;;;;;;4.03;2.70;;;14.90;99.90;;;;;;5022924;28;20092;-77
2022/03/16 11:47:16;;;;;;;3.15;1.60;;;14.90;99.90;;;;;;5028641;28;20121;-78
2022/03/16 11:49:45;;;;;;;3.53;2.15;;;15.20;99.90;;;;;;5019815;28;20120;-78
2022/03/16 11:52:11;;;;;;;4.40;2.15;;;15.30;99.90;;;;;;5026145;28;20057;-78
2022/03/16 11:54:51;;;;;;;4.60;2.60;;;15.30;99.90;;;;;;5029164;28;20041;-78
2022/03/16 11:57:49;;;;;;;3.75;2.33;;;15.10;99.90;;;;;;5022920;28;20036;-78
2022/03/16 12:00:16;;;;;;;4.70;2.00;;;14.90;99.90;;;;;;5041014;28;20052;-77
2022/03/16 12:02:42;;;;;;;6.28;1.90;;;15.00;99.90;;;;;;5009059;28;20486;-78
2022/03/16 12:05:09;;;;;;;3.08;2.00;;;14.90;99.90;;;;;;5012305;28;20107;-78
2022/03/16 12:07:36;;;;;;;3.55;2.53;;;15.00;99.90;;;;;;5018286;28;20040;-78
2022/03/16 12:10:12;;;;;;;4.00;1.80;;;15.20;99.90;;;;;;5040307;28;20044;-78
2022/03/16 12:12:59;;;;;;;3.65;2.45;;;15.40;99.90;;;;;;5040775;28;20033;-78
2022/03/16 12:15:35;;;;;;;3.95;2.55;;;15.50;99.90;;;;;;5005668;28;20056;-78
2022/03/16 12:18:00;;;;;;;3.35;1.83;;;14.90;99.90;;;;;;5025245;28;20163;-78
2022/03/16 12:20:31;;;;;;;2.50;1.80;;;14.70;99.90;;;;;;5024497;28;20040;-78
2022/03/16 12:23:02;;;;;;;3.15;1.70;;;14.40;99.90;;;;;;5032980;28;20017;-78
2022/03/16 12:25:33;;;;;;;2.85;1.55;;;14.30;99.90;;;;;;5023615;28;20036;-77
2022/03/16 12:30:54;;;;;;;3.13;2.30;;;14.40;99.90;;;;;;5025473;28;20080;-77
2022/03/16 12:33:22;;;;;;;4.35;2.67;;;14.30;99.90;;;;;;5024607;28;20474;-78
2022/03/16 12:36:01;;;;;;;2.80;1.88;;;14.50;99.90;;;;;;5006984;28;20073;-78
2022/03/16 12:38:29;;;;;;;2.65;1.65;;;14.60;99.90;;;;;;5016719;28;20713;-77
2022/03/16 12:43:43;;;;;;;2.85;1.80;;;15.00;99.90;;;;;;5025411;28;20147;-78
2022/03/16 12:46:20;;;;;;;2.83;1.35;;;15.10;99.90;;;;;;5008247;28;20497;-78
2022/03/16 12:48:54;;;;;;;2.95;1.50;;;15.10;99.90;;;;;;5025363;28;20255;-78
2022/03/16 12:51:45;;;;;;;3.72;1.90;;;15.20;99.90;;;;;;4997696;28;20029;-78
2022/03/16 12:54:27;;;;;;;2.60;1.48;;;15.30;99.90;;;;;;4999361;28;20120;-77
2022/03/16 12:57:09;;;;;;;3.42;1.60;;;15.40;99.90;;;;;;5007133;28;20045;-78
2022/03/16 12:59:39;;;;;;;3.85;2.28;;;15.30;99.90;;;;;;5025129;28;20025;-78
2022/03/16 13:02:08;;;;;;;2.85;1.95;;;15.20;99.90;;;;;;5024190;28;20030;-78
2022/03/16 13:04:35;;;;;;;3.25;1.80;;;15.10;99.90;;;;;;5025018;28;20030;-78
2022/03/16 13:07:00;;;;;;;2.95;1.50;;;15.20;99.90;;;;;;5024730;28;20049;-77
2022/03/16 13:09:28;;;;;;;3.20;1.70;;;15.20;99.90;;;;;;5023231;28;20069;-77
2022/03/16 13:12:10;;;;;;;2.85;1.02;;;15.10;99.90;;;;;;5025314;28;20025;-78
2022/03/16 13:14:43;;;;;;;2.22;1.20;;;15.30;99.90;;;;;;5016461;28;20029;-78